createdAt,value
2018-12-06T00:00:42.098Z,12.67
2018-12-06T00:03:11.926Z,12.00
2018-12-06T00:05:41.784Z,12.93
2018-12-06T00:08:16.706Z,12.67
2018-12-06T00:10:46.739Z,12.63
2018-12-06T00:13:16.462Z,13.87
2018-12-06T00:15:46.391Z,13.43
2018-12-06T00:18:16.102Z,15.10
2018-12-06T00:20:45.906Z,13.97
2018-12-06T00:23:15.616Z,14.10
2018-12-06T00:25:45.793Z,14.27
2018-12-06T00:28:15.710Z,14.43
2018-12-06T00:30:45.490Z,14.50
2018-12-06T00:33:15.300Z,15.37
2018-12-06T00:35:45.093Z,16.77
2018-12-06T00:38:14.773Z,15.33
2018-12-06T00:40:44.474Z,15.37
2018-12-06T00:43:14.239Z,16.00
2018-12-06T00:45:43.951Z,15.87
2018-12-06T00:48:13.642Z,16.13
2018-12-06T00:50:43.390Z,15.07
2018-12-06T00:53:13.082Z,15.70
2018-12-06T00:55:42.953Z,16.00
2018-12-06T00:58:13.584Z,16.37
2018-12-06T01:00:43.398Z,15.90
2018-12-06T01:03:13.154Z,15.43
2018-12-06T01:05:42.916Z,16.07
2018-12-06T01:08:12.813Z,15.87
2018-12-06T01:10:42.566Z,15.77
2018-12-06T01:13:12.805Z,15.27
2018-12-06T01:15:42.514Z,14.97
2018-12-06T01:18:12.331Z,14.87
2018-12-06T01:20:42.099Z,14.73
2018-12-06T01:23:11.803Z,14.87
2018-12-06T01:25:41.579Z,15.43
2018-12-06T01:28:11.342Z,15.20
2018-12-06T01:30:41.150Z,15.70
2018-12-06T01:33:11.126Z,14.43
2018-12-06T01:35:40.785Z,15.13
2018-12-06T01:38:10.493Z,15.47
2018-12-06T01:40:40.308Z,15.33
2018-12-06T01:43:10.010Z,14.63
2018-12-06T01:45:39.730Z,16.10
2018-12-06T01:48:09.771Z,16.40
2018-12-06T01:50:39.486Z,16.00
2018-12-06T01:53:09.185Z,16.80
2018-12-06T01:55:39.678Z,18.17
2018-12-06T01:58:09.414Z,16.23
2018-12-06T02:00:40.260Z,17.33
2018-12-06T02:03:09.929Z,18.93
2018-12-06T02:05:40.005Z,17.77
2018-12-06T02:08:09.845Z,19.57
2018-12-06T02:10:39.534Z,18.00
2018-12-06T02:13:09.248Z,18.20
2018-12-06T02:15:38.979Z,19.80
2018-12-06T02:18:08.738Z,17.90
2018-12-06T02:20:38.430Z,17.40
2018-12-06T02:23:08.234Z,18.87
2018-12-06T02:25:37.908Z,20.47
2018-12-06T02:28:07.785Z,18.73
2018-12-06T02:30:37.470Z,19.70
2018-12-06T02:33:07.289Z,18.63
2018-12-06T02:35:36.973Z,19.63
2018-12-06T02:38:06.879Z,20.30
2018-12-06T02:40:36.613Z,18.60
2018-12-06T02:43:06.274Z,21.23
2018-12-06T02:45:36.020Z,23.10
2018-12-06T02:48:05.781Z,23.03
2018-12-06T02:50:35.522Z,23.87
2018-12-06T02:53:05.184Z,22.83
2018-12-06T02:55:34.861Z,22.00
2018-12-06T02:58:04.673Z,22.30
2018-12-06T03:00:34.343Z,20.60
2018-12-06T03:03:04.110Z,20.47
2018-12-06T03:05:33.829Z,19.47
2018-12-06T03:08:03.498Z,20.23
2018-12-06T03:10:33.522Z,20.07
2018-12-06T03:13:03.301Z,20.30
2018-12-06T03:15:33.058Z,20.73
2018-12-06T03:18:02.868Z,18.53
2018-12-06T03:20:32.693Z,19.33
2018-12-06T03:23:02.525Z,18.53
2018-12-06T03:25:32.193Z,17.63
2018-12-06T03:28:02.039Z,16.63
2018-12-06T03:30:31.860Z,15.53
2018-12-06T03:33:01.650Z,16.60
2018-12-06T03:35:31.473Z,15.53
2018-12-06T03:38:01.236Z,15.17
2018-12-06T03:40:30.958Z,16.03
2018-12-06T03:43:00.745Z,16.47
2018-12-06T03:45:30.508Z,16.33
2018-12-06T03:48:00.245Z,17.10
2018-12-06T03:50:30.184Z,17.73
2018-12-06T03:52:59.895Z,18.60
2018-12-06T03:55:29.634Z,17.17
2018-12-06T03:57:59.493Z,17.97
2018-12-06T04:00:29.235Z,18.80
2018-12-06T04:02:58.956Z,19.00
2018-12-06T04:05:28.625Z,19.40
2018-12-06T04:07:58.309Z,19.20
2018-12-06T04:10:29.889Z,19.43
2018-12-06T04:12:59.707Z,19.10
2018-12-06T04:15:29.462Z,20.17
2018-12-06T04:17:59.206Z,19.53
2018-12-06T04:20:28.939Z,18.87
2018-12-06T04:22:58.652Z,19.80
2018-12-06T04:25:28.344Z,19.00
2018-12-06T04:27:58.215Z,18.50
2018-12-06T04:30:28.043Z,18.90
2018-12-06T04:32:57.916Z,19.77
2018-12-06T04:35:27.919Z,19.83
2018-12-06T04:37:57.658Z,18.73
2018-12-06T04:40:27.368Z,18.63
2018-12-06T04:42:57.159Z,18.60
2018-12-06T04:45:26.983Z,18.77
2018-12-06T04:47:56.747Z,18.50
2018-12-06T04:50:26.500Z,19.57
2018-12-06T04:52:56.333Z,17.90
2018-12-06T04:55:26.138Z,18.00
2018-12-06T04:57:55.990Z,18.00
2018-12-06T05:00:25.704Z,17.47
2018-12-06T05:02:55.486Z,18.07
2018-12-06T05:05:25.190Z,17.47
2018-12-06T05:07:55.030Z,17.70
2018-12-06T05:10:24.786Z,17.67
2018-12-06T05:12:54.634Z,18.30
2018-12-06T05:15:24.385Z,18.90
2018-12-06T05:17:54.270Z,18.60
2018-12-06T05:20:23.962Z,18.77
2018-12-06T05:22:53.772Z,17.63
2018-12-06T05:25:23.479Z,18.40
2018-12-06T05:27:53.258Z,19.10
2018-12-06T05:30:22.985Z,18.77
2018-12-06T05:32:52.698Z,18.93
2018-12-06T05:35:22.408Z,18.67
2018-12-06T05:37:52.165Z,19.80
2018-12-06T05:40:21.966Z,20.07
2018-12-06T05:42:51.845Z,19.33
2018-12-06T05:45:21.589Z,19.73
2018-12-06T05:47:51.409Z,19.77
2018-12-06T05:50:21.243Z,18.20
2018-12-06T05:52:51.100Z,17.80
2018-12-06T05:55:20.904Z,17.20
2018-12-06T05:57:50.586Z,17.87
2018-12-06T06:00:20.878Z,21.13
2018-12-06T06:02:50.618Z,17.93
2018-12-06T06:05:20.314Z,17.67
2018-12-06T06:07:50.117Z,18.23
2018-12-06T06:10:19.870Z,18.77
2018-12-06T06:12:49.578Z,19.20
2018-12-06T06:15:19.341Z,20.13
2018-12-06T06:17:49.102Z,19.17
2018-12-06T06:20:18.795Z,19.60
2018-12-06T06:22:48.545Z,19.90
2018-12-06T06:25:18.262Z,20.00
2018-12-06T06:27:48.126Z,20.73
2018-12-06T06:30:17.877Z,20.47
2018-12-06T06:32:47.731Z,21.37
2018-12-06T06:35:17.600Z,21.23
2018-12-06T06:37:47.336Z,21.80
2018-12-06T06:40:17.049Z,23.20
2018-12-06T06:42:46.866Z,23.13
2018-12-06T06:45:16.637Z,21.53
2018-12-06T06:47:46.343Z,22.70
2018-12-06T06:50:16.034Z,22.07
2018-12-06T06:52:45.733Z,22.70
2018-12-06T06:55:15.545Z,22.87
2018-12-06T06:57:45.238Z,22.73
2018-12-06T07:00:15.063Z,23.00
2018-12-06T07:02:44.818Z,23.43
2018-12-06T07:05:14.505Z,22.53
2018-12-06T07:07:44.246Z,22.73
2018-12-06T07:10:13.933Z,21.50
2018-12-06T07:12:43.634Z,21.53
2018-12-06T07:15:13.475Z,21.43
2018-12-06T07:17:43.164Z,21.03
2018-12-06T07:20:13.816Z,20.73
2018-12-06T07:22:44.910Z,20.77
2018-12-06T07:25:14.714Z,20.70
2018-12-06T07:27:44.417Z,20.50
2018-12-06T07:30:14.210Z,19.80
2018-12-06T07:32:44.170Z,19.07
2018-12-06T07:35:14.202Z,19.47
2018-12-06T07:37:48.505Z,18.70
2018-12-06T07:40:18.314Z,18.37
2018-12-06T07:42:48.045Z,19.63
2018-12-06T07:45:17.958Z,20.63
2018-12-06T07:47:48.770Z,19.07
2018-12-06T07:50:19.130Z,20.10
2018-12-06T07:52:48.899Z,19.00
2018-12-06T07:55:18.686Z,18.80
2018-12-06T07:57:49.863Z,18.23
2018-12-06T08:00:19.648Z,18.00
2018-12-06T08:02:49.490Z,17.93
2018-12-06T08:05:19.240Z,16.50
2018-12-06T08:07:48.980Z,17.33
2018-12-06T08:10:18.818Z,18.30
2018-12-06T08:12:48.590Z,17.67
2018-12-06T08:15:18.422Z,18.60
2018-12-06T08:17:52.537Z,18.63
2018-12-06T08:20:22.246Z,19.10
2018-12-06T08:22:51.968Z,19.40
2018-12-06T08:25:21.923Z,18.80
2018-12-06T08:27:51.753Z,18.67
2018-12-06T08:30:21.454Z,18.63
2018-12-06T08:32:51.237Z,18.33
2018-12-06T08:35:20.958Z,18.40
2018-12-06T08:37:50.649Z,18.67
2018-12-06T08:40:20.908Z,17.60
2018-12-06T08:42:50.586Z,18.67
2018-12-06T08:45:20.387Z,18.50
2018-12-06T08:47:50.070Z,18.87
2018-12-06T08:50:25.021Z,20.13
2018-12-06T08:52:56.456Z,20.73
2018-12-06T08:55:26.333Z,20.10
2018-12-06T08:57:56.177Z,19.97
2018-12-06T09:00:26.151Z,20.10
2018-12-06T09:02:55.922Z,19.90
2018-12-06T09:05:25.732Z,19.50
2018-12-06T09:07:56.182Z,19.03
2018-12-06T09:10:25.974Z,18.73
2018-12-06T09:12:56.986Z,18.73
2018-12-06T09:15:27.634Z,18.53
2018-12-06T09:17:57.351Z,18.67
2018-12-06T09:20:28.930Z,17.97
2018-12-06T09:22:58.629Z,18.57
2018-12-06T09:25:28.401Z,17.90
2018-12-06T09:27:58.134Z,16.10
2018-12-06T09:30:28.029Z,15.70
2018-12-06T09:32:57.709Z,15.07
2018-12-06T09:35:29.453Z,13.60
2018-12-06T09:37:59.322Z,13.47
2018-12-06T09:40:29.025Z,12.83
2018-12-06T09:43:00.204Z,12.67
2018-12-06T09:45:30.054Z,12.00
2018-12-06T09:48:00.515Z,11.90
2018-12-06T09:50:30.398Z,11.47
2018-12-06T09:53:00.097Z,11.23
2018-12-06T09:55:31.082Z,11.20
2018-12-06T09:58:00.979Z,11.73
2018-12-06T10:00:30.769Z,11.20
2018-12-06T10:03:05.050Z,10.93
2018-12-06T10:05:34.806Z,11.47
2018-12-06T10:08:04.591Z,11.70
2018-12-06T10:10:34.340Z,11.40
2018-12-06T10:13:04.003Z,10.80
2018-12-06T10:15:33.837Z,11.57
2018-12-06T10:18:07.105Z,12.27
2018-12-06T10:20:36.986Z,12.40
2018-12-06T10:23:06.701Z,12.60
2018-12-06T10:25:36.398Z,13.60
2018-12-06T10:28:06.133Z,12.90
2018-12-06T10:30:39.342Z,13.27
2018-12-06T10:33:09.066Z,12.87
2018-12-06T10:35:38.768Z,13.07
2018-12-06T10:38:08.594Z,13.30
2018-12-06T10:40:38.309Z,13.03
2018-12-06T10:43:08.217Z,13.20
2018-12-06T10:45:38.073Z,13.13
2018-12-06T10:48:07.863Z,13.20
2018-12-06T10:50:37.593Z,14.53
2018-12-06T10:53:07.285Z,14.17
2018-12-06T10:55:37.115Z,14.87
2018-12-06T10:58:06.822Z,16.10
2018-12-06T11:00:42.566Z,15.10
2018-12-06T11:03:16.527Z,16.33
2018-12-06T11:05:46.349Z,16.67
2018-12-06T11:08:20.537Z,16.87
2018-12-06T11:10:54.839Z,15.77
2018-12-06T11:13:24.626Z,15.93
2018-12-06T11:15:58.317Z,16.30
2018-12-06T11:18:28.111Z,16.93
2018-12-06T11:20:57.855Z,16.93
2018-12-06T11:23:27.566Z,16.10
2018-12-06T11:25:57.278Z,16.50
2018-12-06T11:28:28.849Z,16.07
2018-12-06T11:30:58.561Z,14.90
2018-12-06T11:33:28.278Z,14.43
2018-12-06T11:35:58.098Z,14.63
2018-12-06T11:38:27.829Z,13.27
2018-12-06T11:40:57.609Z,13.47
2018-12-06T11:43:32.752Z,12.80
2018-12-06T11:46:02.674Z,12.93
2018-12-06T11:48:36.045Z,11.57
2018-12-06T11:51:05.848Z,11.07
2018-12-06T11:53:35.626Z,10.53
2018-12-06T11:56:05.414Z,9.57
2018-12-06T11:58:35.125Z,9.07
2018-12-06T12:01:04.925Z,9.37
2018-12-06T12:03:34.727Z,8.63
2018-12-06T12:06:04.533Z,8.97
2018-12-06T12:08:34.261Z,8.80
2018-12-06T12:11:04.157Z,10.13
2018-12-06T12:13:33.867Z,9.30
2018-12-06T12:16:03.993Z,8.80
2018-12-06T12:18:33.807Z,8.80
2018-12-06T12:21:03.554Z,9.00
2018-12-06T12:23:33.276Z,10.47
2018-12-06T12:26:03.077Z,9.70
2018-12-06T12:28:33.025Z,10.20
2018-12-06T12:31:02.858Z,11.40
2018-12-06T12:33:32.665Z,11.10
2018-12-06T12:36:02.615Z,10.93
2018-12-06T12:38:32.399Z,11.57
2018-12-06T12:41:03.411Z,12.00
2018-12-06T12:43:33.332Z,11.57
2018-12-06T12:46:03.225Z,11.30
2018-12-06T12:48:33.069Z,11.53
2018-12-06T12:51:02.891Z,11.37
2018-12-06T12:53:32.584Z,11.17
2018-12-06T12:56:02.347Z,11.97
2018-12-06T12:58:32.578Z,11.57
2018-12-06T13:01:02.309Z,12.17
2018-12-06T13:03:32.126Z,11.90
2018-12-06T13:06:01.850Z,12.03
2018-12-06T13:08:31.581Z,11.60
2018-12-06T13:11:01.517Z,12.00
2018-12-06T13:13:32.317Z,12.70
2018-12-06T13:16:02.121Z,12.67
2018-12-06T13:18:31.841Z,13.73
2018-12-06T13:21:01.533Z,13.43
2018-12-06T13:23:31.359Z,12.57
2018-12-06T13:26:04.796Z,13.47
2018-12-06T13:28:34.665Z,13.30
2018-12-06T13:31:04.617Z,13.10
2018-12-06T13:33:34.378Z,13.80
2018-12-06T13:36:04.377Z,13.43
2018-12-06T13:38:34.081Z,13.33
2018-12-06T13:41:03.786Z,14.40
2018-12-06T13:43:33.745Z,14.07
2018-12-06T13:46:03.530Z,14.30
2018-12-06T13:48:34.261Z,13.63
2018-12-06T13:51:04.047Z,13.73
2018-12-06T13:53:33.878Z,13.03
2018-12-06T13:56:03.581Z,13.43
2018-12-06T13:58:33.415Z,12.43
2018-12-06T14:01:03.531Z,12.50
2018-12-06T14:03:33.430Z,12.33
2018-12-06T14:06:03.266Z,13.03
2018-12-06T14:08:33.139Z,12.60
2018-12-06T14:11:02.901Z,13.03
2018-12-06T14:13:33.061Z,12.53
2018-12-06T14:16:07.108Z,12.67
2018-12-06T14:18:34.625Z,12.37
2018-12-06T14:21:04.329Z,12.53
2018-12-06T14:23:34.035Z,12.37
2018-12-06T14:26:03.934Z,12.13
2018-12-06T14:28:33.656Z,12.53
2018-12-06T14:31:03.415Z,12.70
2018-12-06T14:33:33.158Z,12.20
2018-12-06T14:36:02.966Z,12.57
2018-12-06T14:38:32.814Z,12.13
2018-12-06T14:41:02.635Z,11.33
2018-12-06T14:43:32.533Z,11.40
2018-12-06T14:46:02.921Z,11.90
2018-12-06T14:48:32.787Z,11.63
2018-12-06T14:51:02.790Z,11.83
2018-12-06T14:53:32.734Z,10.73
2018-12-06T14:56:02.530Z,11.53
2018-12-06T14:58:32.402Z,11.30
2018-12-06T15:01:02.210Z,11.37
2018-12-06T15:03:32.878Z,10.63
2018-12-06T15:06:02.751Z,11.37
2018-12-06T15:08:32.921Z,11.33
2018-12-06T15:11:02.694Z,13.67
2018-12-06T15:13:32.689Z,13.43
2018-12-06T15:16:02.537Z,12.00
2018-12-06T15:18:32.293Z,11.63
2018-12-06T15:21:02.381Z,10.87
2018-12-06T15:23:32.210Z,11.87
2018-12-06T15:26:02.066Z,11.00
2018-12-06T15:28:31.936Z,10.20
2018-12-06T15:31:01.746Z,10.87
2018-12-06T15:33:31.749Z,10.10
2018-12-06T15:36:01.586Z,10.73
2018-12-06T15:38:31.447Z,10.07
2018-12-06T15:41:01.318Z,10.93
2018-12-06T15:43:31.327Z,11.63
2018-12-06T15:46:01.307Z,10.73
2018-12-06T15:48:31.062Z,11.40
2018-12-06T15:51:00.844Z,11.33
2018-12-06T15:53:30.738Z,10.77
2018-12-06T15:56:00.675Z,11.00
2018-12-06T15:58:30.457Z,9.83
2018-12-06T16:01:00.167Z,10.73
2018-12-06T16:03:30.158Z,10.27
2018-12-06T16:05:59.963Z,9.87
2018-12-06T16:08:34.247Z,9.83
2018-12-06T16:11:04.009Z,10.67
2018-12-06T16:13:33.883Z,9.80
2018-12-06T16:16:04.338Z,9.50
2018-12-06T16:18:34.214Z,9.73
2018-12-06T16:21:04.026Z,10.17
2018-12-06T16:23:40.473Z,9.27
2018-12-06T16:26:10.249Z,9.17
2018-12-06T16:28:40.036Z,9.53
2018-12-06T16:31:10.957Z,9.10
2018-12-06T16:33:40.769Z,9.37
2018-12-06T16:36:10.473Z,8.83
2018-12-06T16:38:40.460Z,9.10
2018-12-06T16:41:10.168Z,9.27
2018-12-06T16:43:40.030Z,9.10
2018-12-06T16:46:09.741Z,8.77
2018-12-06T16:48:39.886Z,9.33
2018-12-06T16:51:11.265Z,9.33
2018-12-06T16:53:41.082Z,8.40
2018-12-06T16:56:10.822Z,8.00
2018-12-06T16:58:40.641Z,8.47
2018-12-06T17:01:10.598Z,8.83
2018-12-06T17:03:40.311Z,8.40
2018-12-06T17:06:10.030Z,9.40
2018-12-06T17:08:39.785Z,9.90
2018-12-06T17:11:10.717Z,9.20
2018-12-06T17:13:40.662Z,10.23
2018-12-06T17:16:10.383Z,17.20
2018-12-06T17:18:40.145Z,12.80
2018-12-06T17:21:09.938Z,9.30
2018-12-06T17:23:39.669Z,15.47
2018-12-06T17:26:09.394Z,9.07
2018-12-06T17:28:39.221Z,11.50
2018-12-06T17:31:09.878Z,9.23
2018-12-06T17:33:39.658Z,8.53
2018-12-06T17:36:09.378Z,9.13
2018-12-06T17:38:39.090Z,8.90
2018-12-06T17:41:15.461Z,8.50
2018-12-06T17:43:45.162Z,8.90
2018-12-06T17:46:14.960Z,8.97
2018-12-06T17:48:45.066Z,8.97
2018-12-06T17:51:14.874Z,9.70
2018-12-06T17:53:52.011Z,9.40
2018-12-06T17:56:16.318Z,6.70
2018-12-06T17:58:46.267Z,6.60
2018-12-06T18:01:16.225Z,7.20
2018-12-06T18:03:46.118Z,7.60
2018-12-06T18:06:15.958Z,7.43
2018-12-06T18:08:45.655Z,6.80
2018-12-06T18:11:15.473Z,7.60
2018-12-06T18:13:47.158Z,7.33
2018-12-06T18:16:19.669Z,7.93
2018-12-06T18:18:48.782Z,7.90
2018-12-06T18:21:18.797Z,7.90
2018-12-06T18:23:48.512Z,6.90
2018-12-06T18:26:18.270Z,8.77
2018-12-06T18:28:48.105Z,6.80
2018-12-06T18:31:17.815Z,6.90
2018-12-06T18:33:47.519Z,7.60
2018-12-06T18:36:17.375Z,6.90
2018-12-06T18:38:47.133Z,7.13
2018-12-06T18:41:16.876Z,7.37
2018-12-06T18:43:46.673Z,6.60
2018-12-06T18:46:17.629Z,7.00
2018-12-06T18:48:48.105Z,7.20
2018-12-06T18:51:17.823Z,7.37
2018-12-06T18:53:47.530Z,7.13
2018-12-06T18:56:17.642Z,6.60
2018-12-06T18:58:47.746Z,6.97
2018-12-06T19:01:17.641Z,6.47
2018-12-06T19:03:47.449Z,6.00
2018-12-06T19:06:17.203Z,5.83
2018-12-06T19:08:47.002Z,6.43
2018-12-06T19:11:16.842Z,9.90
2018-12-06T19:13:46.637Z,6.60
2018-12-06T19:16:16.479Z,8.67
2018-12-06T19:18:46.179Z,7.10
2018-12-06T19:21:15.999Z,8.50
2018-12-06T19:23:45.714Z,7.77
2018-12-06T19:26:15.515Z,8.43
2018-12-06T19:28:45.298Z,46.00
2018-12-06T19:31:15.179Z,10.87
2018-12-06T19:33:44.937Z,7.77
2018-12-06T19:36:14.799Z,6.00
2018-12-06T19:38:44.502Z,6.87
2018-12-06T19:41:14.234Z,7.07
2018-12-06T19:43:44.096Z,10.00
2018-12-06T19:46:13.921Z,19.37
2018-12-06T19:48:43.637Z,9.10
2018-12-06T19:51:13.406Z,6.10
2018-12-06T19:53:44.151Z,6.60
2018-12-06T19:56:14.205Z,12.10
2018-12-06T19:58:44.006Z,6.20
2018-12-06T20:01:13.814Z,4.97
2018-12-06T20:03:43.722Z,4.63
2018-12-06T20:06:13.547Z,5.33
2018-12-06T20:08:43.427Z,5.03
2018-12-06T20:11:13.273Z,5.10
2018-12-06T20:13:43.016Z,5.30
2018-12-06T20:16:12.881Z,5.67
2018-12-06T20:18:42.584Z,5.80
2018-12-06T20:21:38.790Z,5.13
2018-12-06T20:24:11.514Z,5.03
2018-12-06T20:26:41.426Z,5.10
2018-12-06T20:29:11.326Z,5.77
2018-12-06T20:31:41.270Z,5.20
2018-12-06T20:34:11.174Z,4.60
2018-12-06T20:36:41.010Z,5.00
2018-12-06T20:39:10.918Z,4.93
2018-12-06T20:41:40.939Z,5.50
2018-12-06T20:44:11.157Z,5.47
2018-12-06T20:46:41.101Z,5.07
2018-12-06T20:49:11.994Z,4.97
2018-12-06T20:51:41.820Z,4.90
2018-12-06T20:54:11.700Z,5.17
2018-12-06T20:56:41.509Z,5.10
2018-12-06T20:59:11.406Z,4.40
2018-12-06T21:01:41.238Z,5.03
2018-12-06T21:04:11.055Z,4.90
2018-12-06T21:06:41.610Z,5.20
2018-12-06T21:09:11.494Z,5.53
2018-12-06T21:11:41.224Z,5.17
2018-12-06T21:14:11.030Z,5.30
2018-12-06T21:16:41.966Z,4.87
2018-12-06T21:19:11.723Z,5.00
2018-12-06T21:21:41.450Z,5.07
2018-12-06T21:24:11.149Z,4.87
2018-12-06T21:26:40.920Z,4.70
2018-12-06T21:29:10.845Z,4.93
2018-12-06T21:31:42.631Z,5.33
2018-12-06T21:34:12.343Z,4.80
2018-12-06T21:36:44.010Z,5.07
2018-12-06T21:39:13.929Z,5.17
2018-12-06T21:41:43.718Z,5.03
2018-12-06T21:44:13.566Z,5.20
2018-12-06T21:46:43.374Z,5.30
2018-12-06T21:49:13.396Z,5.30
2018-12-06T21:51:43.293Z,4.93
2018-12-06T21:54:13.320Z,5.30
2018-12-06T21:56:43.018Z,5.20
2018-12-06T21:59:12.814Z,5.47
2018-12-06T22:01:42.501Z,4.73
2018-12-06T22:04:12.201Z,5.00
2018-12-06T22:06:42.077Z,5.07
2018-12-06T22:09:11.789Z,4.77
2018-12-06T22:11:41.518Z,4.63
2018-12-06T22:14:11.290Z,4.73
2018-12-06T22:16:41.227Z,4.80
2018-12-06T22:19:11.132Z,5.50
2018-12-06T22:21:40.829Z,5.27
2018-12-06T22:24:10.542Z,4.83
2018-12-06T22:26:40.260Z,5.37
2018-12-06T22:29:09.953Z,4.80
2018-12-06T22:31:39.741Z,4.90
2018-12-06T22:34:09.519Z,5.10
2018-12-06T22:36:39.397Z,5.07
2018-12-06T22:39:09.169Z,5.50
2018-12-06T22:41:38.958Z,5.30
2018-12-06T22:44:08.673Z,4.80
2018-12-06T22:46:38.386Z,4.80
2018-12-06T22:49:08.243Z,5.37
2018-12-06T22:51:38.241Z,5.20
2018-12-06T22:54:07.937Z,5.63
2018-12-06T22:56:37.834Z,5.20
2018-12-06T22:59:07.533Z,5.43
2018-12-06T23:01:40.788Z,4.80
2018-12-06T23:04:10.482Z,4.80
2018-12-06T23:06:40.277Z,4.60
2018-12-06T23:09:10.322Z,5.47
2018-12-06T23:11:40.097Z,4.77
2018-12-06T23:14:09.889Z,5.87
2018-12-06T23:16:39.746Z,5.40
2018-12-06T23:19:09.493Z,5.20
2018-12-06T23:21:39.349Z,5.17
2018-12-06T23:24:09.058Z,5.20
2018-12-06T23:26:38.962Z,5.77
2018-12-06T23:29:08.655Z,5.33
2018-12-06T23:31:38.467Z,5.23
2018-12-06T23:34:08.304Z,5.37
2018-12-06T23:36:38.010Z,4.87
2018-12-06T23:39:08.153Z,4.73
2018-12-06T23:41:37.966Z,4.90
2018-12-06T23:44:07.770Z,4.80
2018-12-06T23:46:37.533Z,5.10
2018-12-06T23:49:07.351Z,4.60
2018-12-06T23:51:38.564Z,4.83
2018-12-06T23:54:08.346Z,4.37
2018-12-06T23:56:38.128Z,4.60
2018-12-06T23:59:07.971Z,4.70
